createdAt,value
2017-09-21T00:02:01.347Z,94.50
2017-09-21T00:04:28.845Z,94.50
2017-09-21T00:06:56.761Z,95.70
2017-09-21T00:09:24.267Z,95.70
2017-09-21T00:11:51.790Z,96.30
2017-09-21T00:14:19.331Z,95.30
2017-09-21T00:16:47.237Z,95.50
2017-09-21T00:19:14.743Z,95.50
2017-09-21T00:21:42.254Z,95.60
2017-09-21T00:24:10.167Z,94.80
2017-09-21T00:26:37.679Z,94.80
2017-09-21T00:29:05.215Z,95.10
2017-09-21T00:31:32.730Z,95.40
2017-09-21T00:34:00.262Z,95.70
2017-09-21T00:36:27.829Z,96.00
2017-09-21T00:38:55.783Z,96.70
2017-09-21T00:41:23.685Z,96.70
2017-09-21T00:43:51.201Z,96.70
2017-09-21T00:46:18.725Z,95.80
2017-09-21T00:48:46.637Z,96.30
2017-09-21T00:51:14.295Z,96.40
2017-09-21T00:53:41.802Z,96.60
2017-09-21T00:56:09.502Z,97.20
2017-09-21T00:58:37.416Z,96.50
2017-09-21T01:01:04.960Z,96.50
2017-09-21T01:03:32.487Z,95.90
2017-09-21T01:05:59.986Z,95.80
2017-09-21T01:08:27.509Z,96.50
2017-09-21T01:10:55.015Z,97.00
2017-09-21T01:13:22.527Z,97.20
2017-09-21T01:15:50.439Z,97.40
2017-09-21T01:18:17.965Z,97.40
2017-09-21T01:20:45.464Z,97.40
2017-09-21T01:23:13.392Z,97.00
2017-09-21T01:25:40.903Z,97.00
2017-09-21T01:28:08.398Z,96.80
2017-09-21T01:30:36.088Z,96.40
2017-09-21T01:33:03.589Z,96.30
2017-09-21T01:35:31.514Z,96.30
2017-09-21T01:37:59.029Z,96.30
2017-09-21T01:40:26.551Z,96.10
2017-09-21T01:42:54.054Z,96.10
2017-09-21T01:45:21.573Z,96.30
2017-09-21T01:47:49.070Z,96.10
2017-09-21T01:50:16.571Z,96.10
2017-09-21T01:52:44.099Z,96.10
2017-09-21T01:55:11.608Z,95.90
2017-09-21T01:57:39.129Z,95.80
2017-09-21T02:00:06.627Z,95.60
2017-09-21T02:02:34.149Z,95.50
2017-09-21T02:05:01.662Z,95.40
2017-09-21T02:07:29.571Z,95.10
2017-09-21T02:09:57.099Z,95.10
2017-09-21T02:12:24.606Z,94.80
2017-09-21T02:14:52.534Z,94.90
2017-09-21T02:17:20.033Z,94.90
2017-09-21T02:19:47.575Z,94.80
2017-09-21T02:22:15.078Z,94.80
2017-09-21T02:24:42.570Z,95.10
2017-09-21T02:27:10.093Z,95.10
2017-09-21T02:29:37.594Z,95.10
2017-09-21T02:32:05.119Z,95.10
2017-09-21T02:34:32.622Z,95.40
2017-09-21T02:37:00.578Z,94.10
2017-09-21T02:39:28.094Z,94.10
2017-09-21T02:41:55.610Z,94.50
2017-09-21T02:44:23.141Z,94.70
2017-09-21T02:46:50.638Z,94.80
2017-09-21T02:49:18.554Z,94.60
2017-09-21T02:51:46.105Z,94.60
2017-09-21T02:54:13.651Z,94.60
2017-09-21T02:56:41.158Z,95.30
2017-09-21T02:59:08.683Z,95.40
2017-09-21T03:01:36.195Z,95.60
2017-09-21T03:04:03.722Z,95.80
2017-09-21T03:06:31.233Z,95.90
2017-09-21T03:08:58.733Z,96.30
2017-09-21T03:11:26.257Z,96.80
2017-09-21T03:13:53.778Z,97.20
2017-09-21T03:16:21.297Z,97.40
2017-09-21T03:18:48.801Z,97.10
2017-09-21T03:21:16.346Z,97.20
2017-09-21T03:23:44.259Z,96.50
2017-09-21T03:26:11.783Z,96.50
2017-09-21T03:28:39.289Z,96.00
2017-09-21T03:31:07.203Z,95.60
2017-09-21T03:33:34.719Z,95.60
2017-09-21T03:36:02.218Z,95.70
2017-09-21T03:38:29.737Z,95.50
2017-09-21T03:40:57.233Z,96.00
2017-09-21T03:43:25.148Z,96.00
2017-09-21T03:45:52.645Z,96.00
2017-09-21T03:48:20.177Z,96.30
2017-09-21T03:50:47.696Z,96.30
2017-09-21T03:53:15.609Z,96.10
2017-09-21T03:55:43.111Z,96.10
2017-09-21T03:58:10.636Z,96.10
2017-09-21T04:00:38.533Z,96.40
2017-09-21T04:03:06.025Z,96.40
2017-09-21T04:05:33.535Z,96.50
2017-09-21T04:08:01.054Z,96.90
2017-09-21T04:10:29.821Z,96.90
2017-09-21T04:12:57.362Z,97.00
2017-09-21T04:15:24.903Z,97.20
2017-09-21T04:17:52.448Z,97.20
2017-09-21T04:20:20.019Z,97.00
2017-09-21T04:22:47.555Z,96.70
2017-09-21T04:25:15.100Z,96.60
2017-09-21T04:27:42.666Z,96.40
2017-09-21T04:30:10.208Z,96.40
2017-09-21T04:32:37.749Z,96.30
2017-09-21T04:35:05.308Z,96.30
2017-09-21T04:37:32.890Z,96.30
2017-09-21T04:40:00.424Z,96.20
2017-09-21T04:42:28.457Z,96.40
2017-09-21T04:44:56.414Z,96.40
2017-09-21T04:47:24.001Z,96.30
2017-09-21T04:49:51.597Z,96.30
2017-09-21T04:52:19.148Z,96.30
2017-09-21T04:54:46.727Z,96.30
2017-09-21T04:57:14.334Z,96.20
2017-09-21T04:59:41.964Z,96.20
2017-09-21T05:02:09.522Z,96.10
2017-09-21T05:04:37.047Z,95.80
2017-09-21T05:07:04.590Z,95.90
2017-09-21T05:09:32.113Z,95.90
2017-09-21T05:11:59.645Z,95.80
2017-09-21T05:14:27.150Z,96.00
2017-09-21T05:16:54.704Z,96.00
2017-09-21T05:19:22.217Z,96.00
2017-09-21T05:21:49.717Z,95.80
2017-09-21T05:24:17.244Z,95.40
2017-09-21T05:26:45.147Z,95.20
2017-09-21T05:29:12.698Z,95.20
2017-09-21T05:31:40.228Z,95.70
2017-09-21T05:34:07.799Z,95.60
2017-09-21T05:36:35.390Z,96.00
2017-09-21T05:39:02.975Z,96.10
2017-09-21T05:41:30.577Z,96.30
2017-09-21T05:43:58.187Z,96.10
2017-09-21T05:46:25.777Z,96.20
2017-09-21T05:48:53.408Z,96.20
2017-09-21T05:51:20.961Z,96.10
2017-09-21T05:53:48.491Z,96.00
2017-09-21T05:56:16.410Z,96.00
2017-09-21T05:58:43.943Z,96.00
2017-09-21T06:01:11.521Z,95.90
2017-09-21T06:03:39.113Z,96.00
2017-09-21T06:06:06.710Z,96.00
2017-09-21T06:08:34.266Z,96.00
2017-09-21T06:11:02.200Z,96.00
2017-09-21T06:13:29.708Z,95.90
2017-09-21T06:15:57.211Z,95.90
2017-09-21T06:18:25.144Z,96.00
2017-09-21T06:20:52.654Z,96.00
2017-09-21T06:23:20.206Z,95.90
2017-09-21T06:25:48.732Z,95.70
2017-09-21T06:28:16.332Z,95.60
2017-09-21T06:30:43.850Z,95.70
2017-09-21T06:33:11.388Z,95.70
2017-09-21T06:35:38.934Z,95.70
2017-09-21T06:38:06.457Z,95.60
2017-09-21T06:40:34.005Z,95.60
2017-09-21T06:43:01.515Z,95.40
2017-09-21T06:45:29.149Z,95.20
2017-09-21T06:47:56.666Z,95.30
2017-09-21T06:50:24.216Z,95.20
2017-09-21T06:52:51.738Z,95.30
2017-09-21T06:55:19.255Z,95.30
2017-09-21T06:57:46.790Z,95.20
2017-09-21T07:00:14.711Z,95.00
2017-09-21T07:02:42.263Z,95.00
2017-09-21T07:05:09.815Z,95.20
2017-09-21T07:07:37.349Z,95.20
2017-09-21T07:10:04.884Z,95.30
2017-09-21T07:12:32.466Z,94.60
2017-09-21T07:15:00.378Z,94.80
2017-09-21T07:17:27.928Z,94.80
2017-09-21T07:19:55.521Z,94.70
2017-09-21T07:22:23.048Z,94.40
2017-09-21T07:24:51.031Z,94.50
2017-09-21T07:27:18.548Z,94.50
2017-09-21T07:29:46.499Z,93.70
2017-09-21T07:32:14.421Z,93.90
2017-09-21T07:34:41.960Z,93.90
2017-09-21T07:37:09.496Z,93.60
2017-09-21T07:39:37.047Z,94.20
2017-09-21T07:42:04.596Z,93.40
2017-09-21T07:44:32.156Z,92.90
2017-09-21T07:46:59.666Z,92.20
2017-09-21T07:49:27.190Z,91.80
2017-09-21T07:51:54.729Z,91.00
2017-09-21T07:54:22.362Z,90.40
2017-09-21T07:56:50.890Z,90.00
2017-09-21T07:59:18.465Z,90.30
2017-09-21T08:01:46.080Z,89.00
2017-09-21T08:04:13.640Z,89.10
2017-09-21T08:06:41.634Z,85.40
2017-09-21T08:09:09.983Z,85.40
2017-09-21T08:11:37.550Z,84.60
2017-09-21T08:14:05.099Z,86.20
2017-09-21T08:16:32.593Z,85.90
2017-09-21T08:19:01.013Z,84.40
2017-09-21T08:21:29.379Z,83.50
2017-09-21T08:23:57.121Z,83.90
2017-09-21T08:26:24.661Z,84.40
2017-09-21T08:28:52.209Z,82.40
2017-09-21T08:31:19.787Z,83.20
2017-09-21T08:33:47.373Z,83.90
2017-09-21T08:36:14.915Z,82.40
2017-09-21T08:38:42.447Z,82.30
2017-09-21T08:41:10.071Z,81.70
2017-09-21T08:43:38.023Z,81.00
2017-09-21T08:46:05.967Z,80.10
2017-09-21T08:48:33.504Z,80.10
2017-09-21T08:51:01.018Z,80.00
2017-09-21T08:53:28.539Z,80.00
2017-09-21T08:55:56.078Z,79.00
2017-09-21T08:58:23.987Z,77.70
2017-09-21T09:00:51.545Z,77.70
2017-09-21T09:03:19.046Z,77.10
2017-09-21T09:05:46.552Z,77.50
2017-09-21T09:08:14.474Z,77.60
2017-09-21T09:10:41.983Z,77.60
2017-09-21T09:13:09.503Z,76.00
2017-09-21T09:15:37.016Z,75.20
2017-09-21T09:18:04.546Z,75.90
2017-09-21T09:20:32.064Z,74.50
2017-09-21T09:23:00.419Z,74.50
2017-09-21T09:25:27.930Z,73.70
2017-09-21T09:27:55.862Z,75.20
2017-09-21T09:30:23.384Z,75.20
2017-09-21T09:32:50.875Z,76.30
2017-09-21T09:35:18.790Z,74.40
2017-09-21T09:37:46.296Z,74.40
2017-09-21T09:40:13.827Z,72.40
2017-09-21T09:42:41.347Z,72.30
2017-09-21T09:45:14.845Z,72.90
2017-09-21T09:47:42.342Z,72.80
2017-09-21T09:50:09.868Z,72.80
2017-09-21T09:52:37.387Z,72.00
2017-09-21T09:55:04.961Z,70.80
2017-09-21T09:57:32.477Z,71.90
2017-09-21T10:00:00.810Z,70.50
2017-09-21T10:02:28.333Z,69.80
2017-09-21T10:04:55.847Z,70.70
2017-09-21T10:07:23.374Z,69.50
2017-09-21T10:09:50.888Z,70.60
2017-09-21T10:12:18.409Z,69.70
2017-09-21T10:14:45.930Z,70.30
2017-09-21T10:17:13.446Z,69.40
2017-09-21T10:19:40.962Z,69.40
2017-09-21T10:22:08.901Z,69.10
2017-09-21T10:24:36.403Z,69.00
2017-09-21T10:27:03.902Z,68.40
2017-09-21T10:29:31.809Z,68.30
2017-09-21T10:31:59.383Z,68.30
2017-09-21T10:34:26.903Z,69.80
2017-09-21T10:36:54.406Z,68.70
2017-09-21T10:39:21.922Z,68.00
2017-09-21T10:41:49.427Z,68.20
2017-09-21T10:44:16.957Z,68.10
2017-09-21T10:46:44.466Z,67.50
2017-09-21T10:49:12.393Z,67.70
2017-09-21T10:51:39.905Z,67.70
2017-09-21T10:54:07.426Z,67.50
2017-09-21T10:56:34.966Z,66.50
2017-09-21T10:59:02.470Z,66.60
2017-09-21T11:01:30.013Z,66.60
2017-09-21T11:03:57.511Z,67.10
2017-09-21T11:06:25.036Z,66.00
2017-09-21T11:08:52.534Z,67.50
2017-09-21T11:11:20.055Z,67.40
2017-09-21T11:13:47.566Z,66.50
2017-09-21T11:16:15.075Z,66.90
2017-09-21T11:18:42.599Z,67.70
2017-09-21T11:21:11.086Z,66.40
2017-09-21T11:23:38.605Z,67.20
2017-09-21T11:26:06.155Z,66.60
2017-09-21T11:28:33.669Z,65.70
2017-09-21T11:31:01.198Z,66.90
2017-09-21T11:33:29.526Z,66.90
2017-09-21T11:35:57.448Z,66.20
2017-09-21T11:38:24.953Z,66.20
2017-09-21T11:40:52.475Z,65.80
2017-09-21T11:43:20.385Z,66.90
2017-09-21T11:45:47.917Z,66.90
2017-09-21T11:48:15.417Z,67.30
2017-09-21T11:50:42.951Z,66.70
2017-09-21T11:53:10.451Z,66.90
2017-09-21T11:55:37.977Z,66.50
2017-09-21T11:58:05.487Z,66.20
2017-09-21T12:00:33.034Z,65.80
2017-09-21T12:03:00.544Z,66.20
2017-09-21T12:05:28.050Z,64.80
2017-09-21T12:07:55.591Z,65.30
2017-09-21T12:10:23.104Z,66.90
2017-09-21T12:12:51.019Z,65.50
2017-09-21T12:15:18.533Z,65.50
2017-09-21T12:17:46.055Z,65.00
2017-09-21T12:20:13.957Z,65.90
2017-09-21T12:22:41.494Z,65.90
2017-09-21T12:25:09.009Z,66.30
2017-09-21T12:27:36.519Z,66.50
2017-09-21T12:30:04.046Z,64.90
2017-09-21T12:32:31.590Z,66.30
2017-09-21T12:34:59.110Z,65.10
2017-09-21T12:37:26.622Z,65.60
2017-09-21T12:39:54.147Z,65.70
2017-09-21T12:42:22.047Z,67.30
2017-09-21T12:44:49.595Z,67.30
2017-09-21T12:47:17.104Z,66.60
2017-09-21T12:49:44.611Z,63.70
2017-09-21T12:52:12.142Z,65.10
2017-09-21T12:54:39.668Z,64.10
2017-09-21T12:57:07.189Z,64.30
2017-09-21T12:59:34.720Z,64.50
2017-09-21T13:02:02.285Z,65.60
2017-09-21T13:04:29.802Z,65.80
2017-09-21T13:06:57.722Z,64.00
2017-09-21T13:09:25.230Z,64.00
2017-09-21T13:11:52.775Z,60.30
2017-09-21T13:14:20.302Z,62.10
2017-09-21T13:16:47.807Z,62.80
2017-09-21T13:19:15.357Z,63.20
2017-09-21T13:21:42.873Z,62.20
2017-09-21T13:24:10.397Z,62.10
2017-09-21T13:26:37.919Z,62.20
2017-09-21T13:29:05.463Z,62.90
2017-09-21T13:31:32.971Z,61.90
2017-09-21T13:34:00.518Z,62.80
2017-09-21T13:36:28.072Z,63.00
2017-09-21T13:38:55.680Z,63.60
2017-09-21T13:41:23.206Z,63.90
2017-09-21T13:43:50.730Z,63.00
2017-09-21T13:46:18.263Z,63.60
2017-09-21T13:48:45.768Z,62.70
2017-09-21T13:51:13.290Z,61.90
2017-09-21T13:53:40.798Z,63.80
2017-09-21T13:56:08.323Z,62.70
2017-09-21T13:58:36.224Z,62.80
2017-09-21T14:01:03.820Z,62.80
2017-09-21T14:03:31.730Z,61.00
2017-09-21T14:05:59.278Z,61.00
2017-09-21T14:08:26.787Z,60.70
2017-09-21T14:10:54.303Z,60.30
2017-09-21T14:13:22.226Z,61.70
2017-09-21T14:15:49.734Z,61.70
2017-09-21T14:18:17.273Z,61.20
2017-09-21T14:20:44.788Z,61.40
2017-09-21T14:23:12.710Z,60.50
2017-09-21T14:25:40.221Z,60.50
2017-09-21T14:28:07.746Z,60.40
2017-09-21T14:30:35.286Z,60.50
2017-09-21T14:33:02.825Z,62.10
2017-09-21T14:35:30.743Z,60.80
2017-09-21T14:37:58.250Z,60.80
2017-09-21T14:40:25.781Z,62.00
2017-09-21T14:42:53.297Z,61.00
2017-09-21T14:45:21.217Z,60.40
2017-09-21T14:47:48.722Z,60.40
2017-09-21T14:50:16.249Z,62.20
2017-09-21T14:52:44.185Z,63.10
2017-09-21T14:55:11.697Z,63.10
2017-09-21T14:57:39.200Z,61.90
2017-09-21T15:00:06.743Z,62.00
2017-09-21T15:02:34.239Z,61.90
2017-09-21T15:05:01.757Z,62.20
2017-09-21T15:07:29.310Z,63.50
2017-09-21T15:09:56.814Z,63.40
2017-09-21T15:12:24.333Z,63.60
2017-09-21T15:14:51.850Z,63.60
2017-09-21T15:17:19.365Z,64.20
2017-09-21T15:19:46.883Z,65.30
2017-09-21T15:22:14.436Z,63.20
2017-09-21T15:24:41.947Z,65.00
2017-09-21T15:27:09.453Z,64.90
2017-09-21T15:29:36.984Z,66.40
2017-09-21T15:32:04.495Z,66.20
2017-09-21T15:34:32.023Z,66.60
2017-09-21T15:36:59.530Z,66.20
2017-09-21T15:39:27.045Z,67.20
2017-09-21T15:41:54.565Z,68.80
2017-09-21T15:44:22.510Z,69.80
2017-09-21T15:46:50.410Z,68.80
2017-09-21T15:49:17.926Z,68.70
2017-09-21T15:51:45.458Z,67.90
2017-09-21T15:54:13.350Z,66.60
2017-09-21T15:56:40.864Z,66.60
2017-09-21T15:59:08.369Z,67.00
2017-09-21T16:01:35.918Z,67.00
2017-09-21T16:04:03.443Z,69.00
2017-09-21T16:06:30.965Z,67.80
2017-09-21T16:08:58.479Z,67.80
2017-09-21T16:11:26.003Z,68.80
2017-09-21T16:13:53.512Z,68.30
2017-09-21T16:16:21.017Z,67.80
2017-09-21T16:18:48.538Z,68.80
2017-09-21T16:21:16.042Z,69.20
2017-09-21T16:23:43.553Z,69.70
2017-09-21T16:26:11.091Z,70.30
2017-09-21T16:28:40.599Z,70.80
2017-09-21T16:31:08.126Z,70.20
2017-09-21T16:33:36.592Z,71.20
2017-09-21T16:36:05.032Z,72.40
2017-09-21T16:38:32.937Z,73.20
2017-09-21T16:41:00.466Z,73.10
2017-09-21T16:43:28.390Z,74.50
2017-09-21T16:45:56.310Z,74.30
2017-09-21T16:48:23.817Z,74.30
2017-09-21T16:50:53.245Z,75.40
2017-09-21T16:53:20.749Z,75.40
2017-09-21T16:55:48.328Z,75.50
2017-09-21T16:58:15.829Z,75.20
2017-09-21T17:00:43.348Z,75.50
2017-09-21T17:03:11.261Z,76.20
2017-09-21T17:05:38.784Z,76.20
2017-09-21T17:08:06.311Z,76.50
2017-09-21T17:10:33.823Z,76.80
2017-09-21T17:13:01.734Z,77.20
2017-09-21T17:15:29.874Z,77.30
2017-09-21T17:17:57.411Z,77.70
2017-09-21T17:20:24.907Z,78.10
2017-09-21T17:22:52.419Z,78.20
2017-09-21T17:25:19.977Z,78.50
2017-09-21T17:27:47.477Z,78.40
2017-09-21T17:30:15.037Z,78.70
2017-09-21T17:32:42.541Z,78.90
2017-09-21T17:35:10.493Z,79.20
2017-09-21T17:37:38.387Z,79.50
2017-09-21T17:40:05.964Z,79.50
2017-09-21T17:42:33.475Z,79.70
2017-09-21T17:45:01.018Z,80.00
2017-09-21T17:47:28.519Z,80.40
2017-09-21T17:49:56.457Z,81.00
2017-09-21T17:52:23.995Z,81.00
2017-09-21T17:54:51.780Z,81.40
2017-09-21T17:57:21.018Z,81.60
2017-09-21T17:59:48.640Z,82.00
2017-09-21T18:02:16.267Z,82.20
2017-09-21T18:04:43.765Z,82.50
2017-09-21T18:07:11.677Z,82.70
2017-09-21T18:09:39.191Z,82.80
2017-09-21T18:12:07.130Z,83.10
2017-09-21T18:14:35.527Z,83.10
2017-09-21T18:17:03.070Z,83.40
2017-09-21T18:19:30.614Z,83.60
2017-09-21T18:21:58.130Z,83.80
2017-09-21T18:24:26.059Z,84.00
2017-09-21T18:26:53.587Z,84.00
2017-09-21T18:29:21.114Z,84.10
2017-09-21T18:31:48.620Z,84.20
2017-09-21T18:34:16.544Z,84.40
2017-09-21T18:36:44.049Z,84.40
2017-09-21T18:39:11.631Z,84.70
2017-09-21T18:41:39.912Z,84.50
2017-09-21T18:44:07.870Z,84.50
2017-09-21T18:46:35.657Z,84.50
2017-09-21T18:49:07.307Z,84.50
2017-09-21T18:51:34.953Z,84.50
2017-09-21T18:54:03.566Z,84.70
2017-09-21T18:56:31.355Z,84.60
2017-09-21T18:58:58.958Z,84.50
2017-09-21T19:01:26.631Z,84.40
2017-09-21T19:03:54.210Z,84.30
2017-09-21T19:06:21.848Z,84.60
2017-09-21T19:08:49.488Z,84.70
2017-09-21T19:11:17.113Z,84.80
2017-09-21T19:13:44.765Z,84.90
2017-09-21T19:16:12.332Z,84.90
2017-09-21T19:18:39.962Z,85.00
2017-09-21T19:21:11.220Z,85.20
2017-09-21T19:23:41.069Z,85.30
2017-09-21T19:29:06.863Z,85.10
2017-09-21T19:31:35.248Z,85.80
2017-09-21T19:34:02.932Z,85.90
2017-09-21T19:36:30.642Z,85.80
2017-09-21T19:39:01.719Z,85.80
2017-09-21T19:41:32.170Z,85.70
2017-09-21T19:44:03.502Z,85.50
2017-09-21T19:46:31.188Z,85.60
2017-09-21T19:48:58.829Z,85.80
2017-09-21T19:51:26.430Z,86.00
2017-09-21T19:53:54.110Z,85.90
2017-09-21T19:56:21.759Z,85.90
2017-09-21T19:58:49.351Z,86.00
2017-09-21T20:01:16.988Z,85.70
2017-09-21T20:03:44.665Z,86.00
2017-09-21T20:06:16.183Z,85.90
2017-09-21T20:08:44.208Z,86.30
2017-09-21T20:11:11.902Z,86.30
2017-09-21T20:13:39.522Z,86.50
2017-09-21T20:16:07.161Z,86.60
2017-09-21T20:18:34.761Z,86.60
2017-09-21T20:21:02.458Z,86.90
2017-09-21T20:23:30.120Z,86.80
2017-09-21T20:25:57.841Z,86.60
2017-09-21T20:28:25.477Z,86.40
2017-09-21T20:30:53.089Z,86.30
2017-09-21T20:33:21.119Z,86.30
2017-09-21T20:35:48.872Z,86.30
2017-09-21T20:38:16.475Z,86.40
2017-09-21T20:40:44.089Z,86.20
2017-09-21T20:43:12.097Z,86.60
2017-09-21T20:45:39.699Z,86.60
2017-09-21T20:48:07.332Z,86.80
2017-09-21T20:50:34.993Z,86.90
2017-09-21T20:53:02.580Z,87.20
2017-09-21T20:55:30.635Z,87.40
2017-09-21T20:57:58.302Z,87.40
2017-09-21T21:00:25.916Z,87.70
2017-09-21T21:02:53.546Z,87.60
2017-09-21T21:05:21.229Z,88.00
2017-09-21T21:07:48.831Z,87.90
2017-09-21T21:10:26.695Z,88.20
2017-09-21T21:12:54.321Z,88.30
2017-09-21T21:15:23.792Z,88.20
2017-09-21T21:17:52.924Z,88.30
2017-09-21T21:20:20.586Z,88.30
2017-09-21T21:22:48.138Z,88.40
2017-09-21T21:25:15.892Z,88.50
2017-09-21T21:27:43.430Z,88.50
2017-09-21T21:30:11.062Z,88.80
2017-09-21T21:32:38.610Z,89.00
2017-09-21T21:35:06.121Z,89.00
2017-09-21T21:37:33.750Z,89.00
2017-09-21T21:40:01.279Z,89.10
2017-09-21T21:42:28.798Z,89.00
2017-09-21T21:44:56.331Z,89.30
2017-09-21T21:47:23.849Z,89.30
2017-09-21T21:49:51.776Z,89.30
2017-09-21T21:52:19.320Z,89.40
2017-09-21T21:54:46.882Z,89.30
2017-09-21T21:57:14.400Z,89.30
2017-09-21T21:59:41.918Z,89.30
2017-09-21T22:02:09.445Z,89.20
2017-09-21T22:04:37.032Z,89.30
2017-09-21T22:07:04.568Z,89.30
2017-09-21T22:09:32.086Z,89.30
2017-09-21T22:11:59.627Z,89.40
2017-09-21T22:14:27.139Z,89.40
2017-09-21T22:16:55.068Z,89.60
2017-09-21T22:19:22.580Z,89.60
2017-09-21T22:21:50.089Z,89.60
2017-09-21T22:24:18.021Z,89.40
2017-09-21T22:26:45.538Z,89.40
2017-09-21T22:29:13.075Z,89.50
2017-09-21T22:31:40.606Z,89.40
2017-09-21T22:34:08.146Z,89.50
2017-09-21T22:36:35.658Z,89.60
2017-09-21T22:39:03.587Z,89.60
2017-09-21T22:41:31.125Z,89.70
2017-09-21T22:43:58.642Z,89.80
2017-09-21T22:46:26.179Z,89.90
2017-09-21T22:48:53.691Z,89.80
2017-09-21T22:51:21.229Z,89.80
2017-09-21T22:53:49.187Z,89.70
2017-09-21T22:56:17.118Z,89.80
2017-09-21T22:58:44.642Z,89.80
2017-09-21T23:01:12.178Z,89.80
2017-09-21T23:03:39.695Z,89.70
2017-09-21T23:06:07.219Z,89.70
2017-09-21T23:08:34.772Z,89.70
2017-09-21T23:11:02.286Z,89.50
2017-09-21T23:13:29.816Z,89.50
2017-09-21T23:15:57.342Z,89.50
2017-09-21T23:18:24.875Z,89.60
2017-09-21T23:20:52.394Z,89.80
2017-09-21T23:23:19.920Z,89.90
2017-09-21T23:25:49.772Z,89.80
2017-09-21T23:28:17.307Z,89.80
2017-09-21T23:30:44.838Z,89.90
2017-09-21T23:33:12.343Z,89.80
2017-09-21T23:35:40.265Z,89.80
2017-09-21T23:38:07.773Z,89.80
2017-09-21T23:40:35.294Z,89.70
2017-09-21T23:43:03.194Z,89.70
2017-09-21T23:45:30.717Z,89.60
2017-09-21T23:47:58.235Z,89.80
2017-09-21T23:50:26.654Z,89.70
2017-09-21T23:52:54.187Z,89.90
2017-09-21T23:55:21.703Z,89.90
2017-09-21T23:57:49.239Z,90.00
